Pagrindinis puslapis
METAR-TAF:

METAR-TAF

Oro uostai :

Šarm el Šeichas, Egiptas

platuma: 27-58N, ilguma: 034-23E, Aukštis: 50 m

Dabartinis oras

Ataskaita buvo paskelbta 52 minutes, ne 23:00 UTC
Vėjas 9 kt iš Šiaurės
Temperatūra 29°C
Drėgmė 48%
Slėgis 1009 hPa
Matomumas 10 km arba daugiau
nėra debesų žemiau 1500 m ir nėra kamuolinių lietaus debesų

METAR: HESH 232300Z 35009KT CAVOK 29/17 Q1009 NOSIG

Laikas: 01:52 (23:52 UTC)

Prognozė

Ataskaita buvo paskelbta 52 minutes, ne 23:00 UTC
Prognozė galioja nuo 24 metu 00 UTC su 25 metu 06 UTC
Vėjas 13 kt iš Šiaurės
Matomumas 10 km arba daugiau
nėra debesų žemiau 1500 m ir nėra kamuolinių lietaus debesų

TAF: HESH 232300Z 2400/2506 35013KT CAVOK

Orai ataskaitas ir orų prognozės (METAR, TAF).

turimą stotys yra geltonos ir raudonos taškus žemėlapyje.

Perkelti pele per norėdami pamatyti stoties vardą.

Tada spustelėkite, norėdami matyti oro stebėjimo ir prognozės.

Norėdami pakeisti žemėlapį: spustelėkite ant žalios mygtukų su juodo kryžiaus žemyn,; žalią mygtuką su brūkšneliu, jei norite nutolinti; arba žalių rodyklių gretimoms žemėlapius.


METAR-TAF: